Time;durP1;ratioP1;P1;durP2;ratioP2;P2;SDS_P1;SDS_P2;PMS_P1;PMS_P2;Temp;Humidity;BMP_temperature;BMP_pressure;BME280_temperature;BME280_humidity;BME280_pressure;Samples;Min_cycle;Max_cycle;Signal;HPM_P1;HPM_P2
2021/12/28 00:01:30;;;;;;;8.70;4.23;;;5.70;99.90;;;;;;5025052;28;20456;-60
2021/12/28 00:03:55;;;;;;;14.33;4.90;;;5.70;99.90;;;;;;5043830;28;21071;-60
2021/12/28 00:06:22;;;;;;;10.80;4.70;;;5.70;99.90;;;;;;5041414;28;20320;-61
2021/12/28 00:08:48;;;;;;;9.57;4.10;;;5.70;99.90;;;;;;5035929;28;20690;-61
2021/12/28 00:11:14;;;;;;;14.27;6.63;;;5.70;99.90;;;;;;5035830;28;20498;-61
2021/12/28 00:13:41;;;;;;;7.50;3.90;;;5.70;99.90;;;;;;5035098;28;20834;-60
2021/12/28 00:18:37;;;;;;;11.43;4.63;;;5.70;99.90;;;;;;5036298;28;20500;-61
2021/12/28 00:21:06;;;;;;;12.53;4.77;;;5.60;99.90;;;;;;5036361;28;20448;-60
2021/12/28 00:23:40;;;;;;;9.77;4.30;;;5.60;99.90;;;;;;5034197;28;20449;-62
2021/12/28 00:26:10;;;;;;;13.10;4.07;;;5.60;99.90;;;;;;5040854;28;20463;-60
2021/12/28 00:28:36;;;;;;;10.57;5.13;;;5.60;99.90;;;;;;5040409;28;20467;-60
2021/12/28 00:31:02;;;;;;;7.50;4.20;;;5.60;99.90;;;;;;5020518;28;20976;-60
2021/12/28 00:33:28;;;;;;;8.10;4.97;;;5.60;99.90;;;;;;5019763;28;20179;-59
2021/12/28 00:35:54;;;;;;;9.07;5.07;;;5.60;99.90;;;;;;5023785;28;20183;-61
2021/12/28 00:38:22;;;;;;;7.77;4.57;;;5.60;99.90;;;;;;5039444;28;20203;-59
2021/12/28 00:40:54;;;;;;;8.30;4.80;;;5.60;99.90;;;;;;5035304;28;20191;-61
2021/12/28 00:43:20;;;;;;;5.17;3.80;;;5.60;99.90;;;;;;5016151;28;20434;-61
2021/12/28 00:45:47;;;;;;;7.33;5.00;;;5.60;99.90;;;;;;5034888;28;20495;-60
2021/12/28 00:48:13;;;;;;;10.47;4.73;;;5.60;99.90;;;;;;5020716;28;20840;-61
2021/12/28 00:50:39;;;;;;;9.20;4.67;;;5.60;99.90;;;;;;5034979;28;20559;-61
2021/12/28 00:53:05;;;;;;;6.73;5.10;;;5.70;99.90;;;;;;5033370;28;20505;-60
2021/12/28 00:55:32;;;;;;;9.83;5.03;;;5.70;99.90;;;;;;5036483;28;20529;-61
2021/12/28 00:57:57;;;;;;;6.10;4.73;;;5.60;99.90;;;;;;5037435;28;20540;-61
2021/12/28 01:00:27;;;;;;;6.30;4.83;;;5.60;99.90;;;;;;5039630;28;20627;-60
2021/12/28 01:02:54;;;;;;;13.43;4.47;;;5.60;99.90;;;;;;5036736;28;20179;-60
2021/12/28 01:05:20;;;;;;;6.50;3.90;;;5.50;99.90;;;;;;5035455;28;20496;-60
2021/12/28 01:07:46;;;;;;;6.13;4.43;;;5.50;99.90;;;;;;5037921;28;20987;-60
2021/12/28 01:10:16;;;;;;;5.40;4.30;;;5.50;99.90;;;;;;5020648;28;20277;-60
2021/12/28 01:12:42;;;;;;;6.87;4.67;;;5.50;99.90;;;;;;5036872;28;20501;-61
2021/12/28 01:15:09;;;;;;;10.70;4.43;;;5.50;99.90;;;;;;5040011;28;20536;-60
2021/12/28 01:17:36;;;;;;;8.83;4.97;;;5.50;99.90;;;;;;5034003;28;20466;-60
2021/12/28 01:20:05;;;;;;;10.13;4.77;;;5.50;99.90;;;;;;5035907;28;20430;-60
2021/12/28 01:22:32;;;;;;;8.67;4.47;;;5.40;99.90;;;;;;5037479;28;20496;-60
2021/12/28 01:24:57;;;;;;;8.27;4.80;;;5.40;99.90;;;;;;5041362;28;20817;-60
2021/12/28 01:27:23;;;;;;;8.60;5.00;;;5.40;99.90;;;;;;5043198;28;20462;-61
2021/12/28 01:29:49;;;;;;;8.27;4.80;;;5.40;99.90;;;;;;5031818;28;20196;-60
2021/12/28 01:32:15;;;;;;;8.07;4.30;;;5.40;99.90;;;;;;5046739;28;20645;-61
2021/12/28 01:34:41;;;;;;;6.50;4.50;;;5.40;99.90;;;;;;5045422;28;20550;-61
2021/12/28 01:37:07;;;;;;;8.53;4.63;;;5.40;99.90;;;;;;5028082;28;20192;-60
2021/12/28 01:39:33;;;;;;;11.33;5.03;;;5.40;99.90;;;;;;5026811;28;20452;-61
2021/12/28 01:42:02;;;;;;;9.27;4.83;;;5.40;99.90;;;;;;5047381;28;20429;-61
2021/12/28 01:44:29;;;;;;;7.60;5.40;;;5.40;99.90;;;;;;5044040;28;20426;-60
2021/12/28 01:46:55;;;;;;;7.10;5.30;;;5.40;99.90;;;;;;5032445;28;20579;-66
2021/12/28 01:49:21;;;;;;;11.23;5.10;;;5.40;99.90;;;;;;5025313;28;20936;-61
2021/12/28 01:51:47;;;;;;;8.27;5.00;;;5.40;99.90;;;;;;5047695;28;21025;-61
2021/12/28 01:54:13;;;;;;;7.87;5.33;;;5.40;99.90;;;;;;5028136;28;20525;-61
2021/12/28 01:56:44;;;;;;;9.83;5.63;;;5.40;99.90;;;;;;5047743;28;20180;-60
2021/12/28 01:59:12;;;;;;;6.93;4.83;;;5.40;99.90;;;;;;5044509;28;21096;-60
2021/12/28 02:01:41;;;;;;;12.63;5.20;;;5.40;99.90;;;;;;5048158;28;20430;-60
2021/12/28 02:04:36;;;;;;;10.93;5.90;;;5.50;99.90;;;;;;5047128;28;20433;-61
2021/12/28 02:07:02;;;;;;;8.33;5.30;;;5.50;99.90;;;;;;5039415;28;20523;-60
2021/12/28 02:09:28;;;;;;;17.10;5.53;;;5.40;99.90;;;;;;5047435;28;20917;-61
2021/12/28 02:11:53;;;;;;;11.23;5.53;;;5.40;99.90;;;;;;5047086;28;21013;-61
2021/12/28 02:14:21;;;;;;;15.97;5.70;;;5.40;99.90;;;;;;5031388;28;20175;-62
2021/12/28 02:16:47;;;;;;;8.70;5.00;;;5.40;99.90;;;;;;5030210;28;20206;-61
2021/12/28 02:19:13;;;;;;;11.03;5.50;;;5.40;99.90;;;;;;5048321;28;20882;-62
2021/12/28 02:21:44;;;;;;;15.73;5.30;;;5.30;99.90;;;;;;5048878;28;20422;-61
2021/12/28 02:24:10;;;;;;;9.40;6.03;;;5.30;99.90;;;;;;5047382;28;20424;-60
2021/12/28 02:26:37;;;;;;;6.87;4.93;;;5.30;99.90;;;;;;5027799;28;20822;-60
2021/12/28 02:29:04;;;;;;;10.27;5.10;;;5.30;99.90;;;;;;5049126;28;20258;-61
2021/12/28 02:31:30;;;;;;;12.30;5.03;;;5.30;99.90;;;;;;5046434;28;20453;-61
2021/12/28 02:33:56;;;;;;;10.40;5.50;;;5.30;99.90;;;;;;5047975;28;20428;-61
2021/12/28 02:36:21;;;;;;;12.93;5.47;;;5.30;99.90;;;;;;5050894;28;20172;-61
2021/12/28 02:38:50;;;;;;;10.87;5.57;;;5.30;99.90;;;;;;5046428;28;20670;-60
2021/12/28 02:41:16;;;;;;;7.17;5.10;;;5.30;99.90;;;;;;5044563;28;20606;-59
2021/12/28 02:43:45;;;;;;;8.13;5.20;;;5.30;99.90;;;;;;5049230;28;20453;-61
2021/12/28 02:46:11;;;;;;;8.77;5.80;;;5.30;99.90;;;;;;5042926;28;20546;-61
2021/12/28 02:48:37;;;;;;;12.60;7.73;;;5.30;99.90;;;;;;5029071;28;20445;-61
2021/12/28 02:51:07;;;;;;;8.37;6.30;;;5.20;99.90;;;;;;5026809;28;20210;-61
2021/12/28 02:53:34;;;;;;;10.40;5.73;;;5.20;99.90;;;;;;5046215;28;20425;-61
2021/12/28 02:56:00;;;;;;;8.93;6.27;;;5.20;99.90;;;;;;5046186;28;20459;-61
2021/12/28 02:58:28;;;;;;;9.73;6.97;;;5.20;99.90;;;;;;5047575;28;20451;-61
2021/12/28 03:00:56;;;;;;;11.60;6.13;;;5.20;99.90;;;;;;5045870;28;20437;-60
2021/12/28 03:03:25;;;;;;;11.77;6.23;;;5.30;99.90;;;;;;5045933;28;20481;-62
2021/12/28 03:05:53;;;;;;;11.77;7.13;;;5.30;99.90;;;;;;5044774;28;20541;-61
2021/12/28 03:08:21;;;;;;;11.03;6.80;;;5.30;99.90;;;;;;5029657;28;20461;-61
2021/12/28 03:10:48;;;;;;;18.53;7.30;;;5.30;99.90;;;;;;5044668;28;20453;-59
2021/12/28 03:13:23;;;;;;;11.50;6.70;;;5.30;99.90;;;;;;5045909;28;20418;-61
2021/12/28 03:15:49;;;;;;;8.53;6.50;;;5.30;99.90;;;;;;5046089;28;20425;-61
2021/12/28 03:18:18;;;;;;;13.90;6.83;;;5.30;99.90;;;;;;5044660;28;20469;-60
2021/12/28 03:20:44;;;;;;;11.60;7.90;;;5.30;99.90;;;;;;5028279;28;21104;-60
2021/12/28 03:23:13;;;;;;;14.10;6.83;;;5.30;99.90;;;;;;5045172;28;20417;-60
2021/12/28 03:25:39;;;;;;;9.03;6.47;;;5.30;99.90;;;;;;5044292;28;20931;-61
2021/12/28 03:28:05;;;;;;;12.27;6.97;;;5.30;99.90;;;;;;5027302;28;20444;-60
2021/12/28 03:30:30;;;;;;;9.90;6.53;;;5.40;99.90;;;;;;5045326;28;20278;-60
2021/12/28 03:32:56;;;;;;;12.60;6.50;;;5.40;99.90;;;;;;5028191;28;20194;-60
2021/12/28 03:35:22;;;;;;;9.33;6.60;;;5.40;99.90;;;;;;5044981;28;20183;-60
2021/12/28 03:37:48;;;;;;;15.03;7.73;;;5.40;99.90;;;;;;5044442;28;20198;-62
2021/12/28 03:40:15;;;;;;;11.87;5.87;;;5.50;99.90;;;;;;5044099;28;20203;-60
2021/12/28 03:42:42;;;;;;;10.40;5.80;;;5.50;99.90;;;;;;5045456;28;20679;-61
2021/12/28 03:45:10;;;;;;;12.50;6.60;;;5.50;99.90;;;;;;5029180;28;20838;-61
2021/12/28 03:47:35;;;;;;;9.70;6.87;;;5.50;99.90;;;;;;5045319;28;20448;-60
2021/12/28 03:50:03;;;;;;;8.30;6.10;;;5.50;99.90;;;;;;5027834;28;20418;-60
2021/12/28 03:52:32;;;;;;;9.27;6.10;;;5.50;99.90;;;;;;5044428;28;20812;-60
2021/12/28 03:54:58;;;;;;;8.93;7.20;;;5.50;99.90;;;;;;5044136;28;20461;-60
2021/12/28 03:57:24;;;;;;;11.77;7.40;;;5.60;99.90;;;;;;5045066;28;20476;-61
2021/12/28 03:59:49;;;;;;;7.40;5.90;;;5.60;99.90;;;;;;5044789;28;20179;-61
2021/12/28 04:02:15;;;;;;;10.77;6.20;;;5.60;99.90;;;;;;5044961;28;20187;-61
2021/12/28 04:04:41;;;;;;;9.17;6.47;;;5.60;99.90;;;;;;5045269;28;20175;-60
2021/12/28 04:07:09;;;;;;;9.37;6.90;;;5.60;99.90;;;;;;5045040;28;20214;-60
2021/12/28 04:09:57;;;;;;;11.47;6.30;;;5.60;99.90;;;;;;5044649;28;20175;-61
2021/12/28 04:12:23;;;;;;;10.63;5.90;;;5.60;99.90;;;;;;5045049;28;20427;-61
2021/12/28 04:14:49;;;;;;;8.13;6.03;;;5.60;99.90;;;;;;5026785;28;20422;-61
2021/12/28 04:17:15;;;;;;;8.67;5.63;;;5.60;99.90;;;;;;5044805;28;20286;-61
2021/12/28 04:19:41;;;;;;;7.43;5.43;;;5.70;99.90;;;;;;5046280;28;20420;-60
2021/12/28 04:22:07;;;;;;;8.20;5.67;;;5.70;99.90;;;;;;5045130;28;20427;-59
2021/12/28 04:24:33;;;;;;;9.40;5.60;;;5.70;99.90;;;;;;5044598;28;20186;-61
2021/12/28 04:26:59;;;;;;;7.90;6.00;;;5.70;99.90;;;;;;5044687;28;20537;-59
2021/12/28 04:29:25;;;;;;;8.10;5.77;;;5.70;99.90;;;;;;5043424;28;20873;-60
2021/12/28 04:31:51;;;;;;;7.27;4.67;;;5.70;99.90;;;;;;5042837;28;20399;-60
2021/12/28 04:34:16;;;;;;;6.90;5.20;;;5.70;99.90;;;;;;5043755;28;20425;-61
2021/12/28 04:36:42;;;;;;;5.80;4.80;;;5.70;99.90;;;;;;5046448;28;20171;-59
2021/12/28 04:39:08;;;;;;;7.50;4.97;;;5.70;99.90;;;;;;5045822;28;20164;-61
2021/12/28 04:41:34;;;;;;;6.83;5.03;;;5.70;99.90;;;;;;5044508;28;20187;-61
2021/12/28 04:44:01;;;;;;;5.93;4.57;;;5.70;99.90;;;;;;5045486;28;20183;-63
2021/12/28 04:46:29;;;;;;;9.07;5.07;;;5.80;99.90;;;;;;5026965;28;20525;-60
2021/12/28 04:48:55;;;;;;;6.53;4.63;;;5.80;99.90;;;;;;5044231;28;20436;-60
2021/12/28 04:51:22;;;;;;;5.77;4.27;;;5.80;99.90;;;;;;5041609;28;20538;-61
2021/12/28 04:53:49;;;;;;;10.23;5.67;;;5.80;99.90;;;;;;5042575;28;20433;-60
2021/12/28 04:56:15;;;;;;;4.93;4.03;;;5.80;99.90;;;;;;5044860;28;20417;-61
2021/12/28 04:58:40;;;;;;;6.37;4.23;;;5.80;99.90;;;;;;5045793;28;20434;-61
2021/12/28 05:01:06;;;;;;;7.30;4.10;;;5.80;99.90;;;;;;5045001;28;20184;-59
2021/12/28 05:03:32;;;;;;;7.60;3.63;;;5.80;99.90;;;;;;5029457;28;20194;-61
2021/12/28 05:05:57;;;;;;;6.10;4.10;;;5.80;99.90;;;;;;5049874;28;20278;-60
2021/12/28 05:08:23;;;;;;;4.43;3.73;;;5.90;99.90;;;;;;5030044;28;20324;-60
2021/12/28 05:10:51;;;;;;;4.23;3.63;;;5.90;99.90;;;;;;5046821;28;20257;-61
2021/12/28 05:13:17;;;;;;;7.53;3.83;;;5.90;99.90;;;;;;5049828;28;20179;-60
2021/12/28 05:15:44;;;;;;;5.60;3.40;;;5.90;99.90;;;;;;5049486;28;20409;-60
2021/12/28 05:18:11;;;;;;;5.93;4.53;;;5.90;99.90;;;;;;5047364;28;20459;-60
2021/12/28 05:20:37;;;;;;;5.60;3.10;;;5.90;99.90;;;;;;5046118;28;20968;-61
2021/12/28 05:23:04;;;;;;;6.63;4.03;;;5.90;99.90;;;;;;5045964;28;22182;-60
2021/12/28 05:25:30;;;;;;;5.30;3.60;;;6.00;99.90;;;;;;5046490;28;20445;-61
2021/12/28 05:27:56;;;;;;;6.50;3.63;;;6.00;99.90;;;;;;5047353;28;20437;-60
2021/12/28 05:30:22;;;;;;;4.03;2.83;;;6.00;99.90;;;;;;5048874;28;20440;-62
2021/12/28 05:32:48;;;;;;;3.10;2.70;;;6.00;99.90;;;;;;5049661;28;20171;-61
2021/12/28 05:35:14;;;;;;;4.20;3.20;;;6.00;99.90;;;;;;5047932;28;20186;-61
2021/12/28 05:37:42;;;;;;;5.63;2.93;;;6.00;99.90;;;;;;5047380;28;20217;-61
2021/12/28 05:40:11;;;;;;;2.40;2.20;;;6.00;99.90;;;;;;5030244;28;20422;-60
2021/12/28 05:42:37;;;;;;;4.27;2.30;;;6.00;99.90;;;;;;5047610;28;20948;-61
2021/12/28 05:45:04;;;;;;;2.73;2.40;;;6.00;99.90;;;;;;5048414;28;20450;-60
2021/12/28 05:47:30;;;;;;;3.30;2.60;;;6.00;99.90;;;;;;5048064;28;20792;-61
2021/12/28 05:49:55;;;;;;;2.47;2.27;;;6.10;99.90;;;;;;5028339;28;20422;-60
2021/12/28 05:52:21;;;;;;;5.70;3.40;;;6.10;99.90;;;;;;5027268;28;20199;-61
2021/12/28 05:54:47;;;;;;;2.70;2.07;;;6.10;99.90;;;;;;5048602;28;20178;-60
2021/12/28 05:57:13;;;;;;;1.90;1.80;;;6.10;99.90;;;;;;5048488;28;20202;-61
2021/12/28 05:59:39;;;;;;;2.50;1.90;;;6.20;99.90;;;;;;5045778;28;20237;-61
2021/12/28 06:02:05;;;;;;;2.00;1.90;;;6.20;99.90;;;;;;5047342;28;20422;-61
2021/12/28 06:04:31;;;;;;;2.50;2.00;;;6.20;99.90;;;;;;5047116;28;20896;-60
2021/12/28 06:06:57;;;;;;;2.30;1.87;;;6.20;99.90;;;;;;5030534;28;20836;-60
2021/12/28 06:09:22;;;;;;;6.20;1.70;;;6.30;99.90;;;;;;5046490;28;20437;-60
2021/12/28 06:11:48;;;;;;;1.60;1.50;;;6.20;99.90;;;;;;5047421;28;20195;-61
2021/12/28 06:14:14;;;;;;;2.20;1.60;;;6.20;99.90;;;;;;5029879;28;20163;-60
2021/12/28 06:16:39;;;;;;;2.00;1.80;;;6.30;99.90;;;;;;5046335;28;20422;-61
2021/12/28 06:19:06;;;;;;;1.60;1.50;;;6.20;99.90;;;;;;5047525;28;20221;-60
2021/12/28 06:21:33;;;;;;;2.30;1.73;;;6.30;99.90;;;;;;5047676;28;20764;-61
2021/12/28 06:24:00;;;;;;;1.80;1.07;;;6.30;99.90;;;;;;5046982;28;21103;-61
2021/12/28 06:26:27;;;;;;;3.23;1.30;;;6.30;99.90;;;;;;5046069;28;21074;-60
2021/12/28 06:28:53;;;;;;;2.97;1.73;;;6.30;99.90;;;;;;5048211;28;20440;-61
2021/12/28 06:31:18;;;;;;;1.23;1.13;;;6.30;99.90;;;;;;5046974;28;20716;-60
2021/12/28 06:33:44;;;;;;;1.60;1.50;;;6.30;99.90;;;;;;5046095;28;20258;-61
2021/12/28 06:36:10;;;;;;;2.17;1.30;;;6.30;99.90;;;;;;5045755;28;20171;-61
2021/12/28 06:38:35;;;;;;;2.20;1.57;;;6.30;99.90;;;;;;5048181;28;20187;-61
2021/12/28 06:41:03;;;;;;;1.00;1.00;;;6.30;99.90;;;;;;5047590;28;20178;-60
2021/12/28 06:43:29;;;;;;;1.30;1.20;;;6.30;99.90;;;;;;5046437;28;20207;-60
2021/12/28 06:45:55;;;;;;;1.27;1.17;;;6.30;99.90;;;;;;5046911;28;20458;-61
2021/12/28 06:48:22;;;;;;;1.20;1.10;;;6.30;99.90;;;;;;5046588;28;20202;-61
2021/12/28 06:50:48;;;;;;;1.20;1.10;;;6.30;99.90;;;;;;5045966;28;20946;-60
2021/12/28 06:53:15;;;;;;;1.10;1.03;;;6.30;99.90;;;;;;5046837;28;20791;-61
2021/12/28 06:55:41;;;;;;;1.43;1.13;;;6.30;99.90;;;;;;5046157;28;20402;-60
2021/12/28 06:58:06;;;;;;;1.30;1.20;;;6.30;99.90;;;;;;5047819;28;20445;-61
2021/12/28 07:00:33;;;;;;;1.10;1.00;;;6.30;99.90;;;;;;5046887;28;20179;-61
2021/12/28 07:02:59;;;;;;;0.90;0.90;;;6.30;99.90;;;;;;5045270;28;20197;-60
2021/12/28 07:05:25;;;;;;;1.03;1.03;;;6.30;99.90;;;;;;5046131;28;20961;-60
2021/12/28 07:07:51;;;;;;;1.50;1.40;;;6.30;99.90;;;;;;5045533;28;20476;-61
2021/12/28 07:10:20;;;;;;;1.53;1.43;;;6.30;99.90;;;;;;5045594;28;20911;-61
2021/12/28 07:12:50;;;;;;;1.20;1.10;;;6.30;99.90;;;;;;5045845;28;20175;-61
2021/12/28 07:15:16;;;;;;;2.90;1.20;;;6.30;99.90;;;;;;5045570;28;20416;-60
2021/12/28 07:17:42;;;;;;;1.40;1.20;;;6.30;99.90;;;;;;5045528;28;20449;-60
2021/12/28 07:20:08;;;;;;;4.23;1.10;;;6.30;99.90;;;;;;5044428;28;20410;-61
2021/12/28 07:22:35;;;;;;;1.00;1.00;;;6.30;99.90;;;;;;5027571;28;20187;-61
2021/12/28 07:25:01;;;;;;;1.47;1.17;;;6.30;99.90;;;;;;5046058;28;20421;-58
2021/12/28 07:27:26;;;;;;;1.30;1.23;;;6.30;99.90;;;;;;5044946;28;20441;-61
2021/12/28 07:29:52;;;;;;;5.60;1.33;;;6.30;99.90;;;;;;5028624;28;20414;-61
2021/12/28 07:32:18;;;;;;;1.00;1.00;;;6.30;99.90;;;;;;5045306;28;20217;-57
2021/12/28 07:34:43;;;;;;;1.97;1.43;;;6.30;99.90;;;;;;5044580;28;20184;-59
2021/12/28 07:37:09;;;;;;;1.10;1.00;;;6.30;99.90;;;;;;5045564;28;20214;-61
2021/12/28 07:39:35;;;;;;;1.00;1.00;;;6.30;99.90;;;;;;5043864;28;20254;-61
2021/12/28 07:42:01;;;;;;;1.13;1.10;;;6.30;99.90;;;;;;5042135;28;20175;-61
2021/12/28 07:44:26;;;;;;;1.27;1.10;;;6.30;99.90;;;;;;5045631;28;20905;-62
2021/12/28 07:46:52;;;;;;;1.43;1.33;;;6.30;99.90;;;;;;5046984;28;20206;-61
2021/12/28 07:49:18;;;;;;;1.33;1.00;;;6.40;99.90;;;;;;5044016;28;20199;-61
2021/12/28 07:51:44;;;;;;;1.10;0.90;;;6.40;99.90;;;;;;5042785;28;20477;-61
2021/12/28 07:54:09;;;;;;;0.80;0.80;;;6.30;99.90;;;;;;5026686;28;20261;-61
2021/12/28 07:56:37;;;;;;;1.30;1.20;;;6.40;99.90;;;;;;5045842;28;20704;-62
2021/12/28 07:59:03;;;;;;;2.30;1.87;;;6.40;99.90;;;;;;5044187;28;20175;-60
2021/12/28 08:01:31;;;;;;;1.67;1.57;;;6.40;99.90;;;;;;5027580;28;21409;-62
2021/12/28 08:03:57;;;;;;;1.63;0.90;;;6.40;99.90;;;;;;5043883;28;20475;-61
2021/12/28 08:06:23;;;;;;;1.27;1.17;;;6.40;99.90;;;;;;5041808;28;20445;-62
2021/12/28 08:08:48;;;;;;;1.40;1.30;;;6.40;99.90;;;;;;5042150;28;20273;-61
2021/12/28 08:11:14;;;;;;;1.60;1.10;;;6.40;99.90;;;;;;5038000;28;20554;-61
2021/12/28 08:13:40;;;;;;;2.13;1.60;;;6.40;99.90;;;;;;5042515;28;20171;-62
2021/12/28 08:16:05;;;;;;;1.67;1.50;;;6.40;99.90;;;;;;5041824;28;20179;-63
2021/12/28 08:18:31;;;;;;;1.30;1.20;;;6.40;99.90;;;;;;5026698;28;20576;-60
2021/12/28 08:20:56;;;;;;;1.60;1.30;;;6.40;99.90;;;;;;5043178;28;20183;-61
2021/12/28 08:23:22;;;;;;;1.60;1.50;;;6.40;99.90;;;;;;5044528;28;20171;-61
2021/12/28 08:25:48;;;;;;;1.50;1.33;;;6.40;99.90;;;;;;5043808;28;20182;-61
2021/12/28 08:28:13;;;;;;;1.20;1.10;;;6.40;99.90;;;;;;5042363;28;20831;-62
2021/12/28 08:30:39;;;;;;;4.27;2.83;;;6.40;99.90;;;;;;5024033;28;20202;-61
2021/12/28 08:33:06;;;;;;;1.30;1.20;;;6.40;99.90;;;;;;5045748;28;20175;-61
2021/12/28 08:35:36;;;;;;;3.97;2.90;;;6.40;99.90;;;;;;5049538;28;20166;-61
2021/12/28 08:38:02;;;;;;;4.30;3.10;;;6.40;99.90;;;;;;5047905;28;20449;-59
2021/12/28 08:40:28;;;;;;;6.27;4.70;;;6.40;99.90;;;;;;5049091;28;20431;-61
2021/12/28 08:42:54;;;;;;;1.97;1.87;;;6.40;99.90;;;;;;5045410;28;20446;-62
2021/12/28 08:45:19;;;;;;;3.57;1.70;;;6.50;99.90;;;;;;5047312;28;20187;-62
2021/12/28 08:47:47;;;;;;;1.60;1.47;;;6.50;99.90;;;;;;5047279;28;20759;-60
2021/12/28 08:50:13;;;;;;;2.27;1.80;;;6.50;99.90;;;;;;5029319;28;20461;-60
2021/12/28 08:52:40;;;;;;;1.53;1.43;;;6.50;99.90;;;;;;5047639;28;20422;-60
2021/12/28 08:55:07;;;;;;;1.43;1.33;;;6.60;99.90;;;;;;5047418;28;20427;-61
2021/12/28 08:57:33;;;;;;;2.03;1.50;;;6.60;99.90;;;;;;5049266;28;20524;-61
2021/12/28 08:59:58;;;;;;;2.03;1.83;;;6.60;99.90;;;;;;5025732;28;20457;-60
2021/12/28 09:02:24;;;;;;;5.20;2.27;;;6.60;99.90;;;;;;5047648;28;20447;-61
2021/12/28 09:04:50;;;;;;;1.80;1.70;;;6.60;99.90;;;;;;5043686;28;20217;-61
2021/12/28 09:07:17;;;;;;;2.10;2.00;;;6.60;99.90;;;;;;5024802;28;20214;-59
2021/12/28 09:09:44;;;;;;;1.73;1.60;;;6.60;99.90;;;;;;5029260;28;20198;-61
2021/12/28 09:12:11;;;;;;;2.10;1.90;;;6.60;99.90;;;;;;5044628;28;21269;-61
2021/12/28 09:14:36;;;;;;;1.30;1.20;;;6.70;99.90;;;;;;5026872;28;20483;-61
2021/12/28 09:17:03;;;;;;;9.30;1.70;;;6.70;99.90;;;;;;5046490;28;21002;-61
2021/12/28 09:19:30;;;;;;;3.37;1.57;;;6.70;99.90;;;;;;5047040;28;20245;-61
2021/12/28 09:21:56;;;;;;;2.50;1.60;;;6.70;99.90;;;;;;5046024;28;20432;-61
2021/12/28 09:24:22;;;;;;;1.10;1.10;;;6.70;99.90;;;;;;5047477;28;20429;-61
2021/12/28 09:26:48;;;;;;;1.47;1.23;;;6.80;99.90;;;;;;5047320;28;20193;-61
2021/12/28 09:29:13;;;;;;;1.60;1.50;;;6.80;99.90;;;;;;5041988;28;21041;-61
2021/12/28 09:31:39;;;;;;;1.17;1.17;;;6.80;99.90;;;;;;5038412;28;20265;-61
2021/12/28 09:34:05;;;;;;;1.80;1.70;;;6.80;99.90;;;;;;5045428;28;20171;-61
2021/12/28 09:36:31;;;;;;;1.90;1.80;;;6.90;99.90;;;;;;5043278;28;20210;-59
2021/12/28 09:38:56;;;;;;;2.43;2.23;;;6.90;99.90;;;;;;5041066;28;20445;-61
2021/12/28 09:41:22;;;;;;;6.30;2.17;;;6.90;99.90;;;;;;5025100;28;20193;-61
2021/12/28 09:43:48;;;;;;;2.40;1.80;;;6.90;99.90;;;;;;5047006;28;20221;-62
2021/12/28 09:46:14;;;;;;;2.20;1.70;;;7.00;99.90;;;;;;5043029;28;20199;-61
2021/12/28 09:48:40;;;;;;;4.00;2.30;;;7.00;99.90;;;;;;5046443;28;20199;-61
2021/12/28 09:51:07;;;;;;;1.67;1.57;;;7.10;99.90;;;;;;5040451;28;20914;-61
2021/12/28 09:53:33;;;;;;;1.47;1.37;;;7.10;99.90;;;;;;5044471;28;20361;-61
2021/12/28 09:55:59;;;;;;;1.27;1.10;;;7.10;99.90;;;;;;5044995;28;20437;-58
2021/12/28 09:58:25;;;;;;;1.10;1.00;;;7.10;99.90;;;;;;5042624;28;20496;-60
2021/12/28 10:00:51;;;;;;;2.33;1.83;;;7.20;99.90;;;;;;5042391;28;20222;-60
2021/12/28 10:03:17;;;;;;;1.43;1.00;;;7.20;99.90;;;;;;5029447;28;20187;-60
2021/12/28 10:05:44;;;;;;;1.23;1.13;;;7.30;99.90;;;;;;5039642;28;20971;-59
2021/12/28 10:08:09;;;;;;;1.03;0.93;;;7.30;99.90;;;;;;5047039;28;20450;-61
2021/12/28 10:10:40;;;;;;;0.80;0.80;;;7.30;99.90;;;;;;5041344;28;20463;-63
2021/12/28 10:13:10;;;;;;;0.90;0.90;;;7.40;99.90;;;;;;5046111;28;20465;-61
2021/12/28 10:15:38;;;;;;;1.10;1.00;;;7.40;99.90;;;;;;5029224;28;20784;-62
2021/12/28 10:18:08;;;;;;;1.13;1.03;;;7.40;99.90;;;;;;5028535;28;20497;-61
2021/12/28 10:20:42;;;;;;;1.43;1.10;;;7.50;99.90;;;;;;5039499;28;21035;-60
2021/12/28 10:23:13;;;;;;;1.30;1.20;;;7.50;99.90;;;;;;5044547;28;20531;-61
2021/12/28 10:25:51;;;;;;;1.20;1.10;;;7.50;99.90;;;;;;5040698;28;20425;-60
2021/12/28 10:28:28;;;;;;;1.63;1.07;;;7.60;99.90;;;;;;5023857;28;20475;-61
2021/12/28 10:30:57;;;;;;;1.73;1.30;;;7.60;99.90;;;;;;5042941;28;20510;-59
2021/12/28 10:33:27;;;;;;;1.50;1.40;;;7.60;99.90;;;;;;5041358;28;20440;-61
2021/12/28 10:36:02;;;;;;;1.90;1.70;;;7.60;99.90;;;;;;5043813;28;20454;-61
2021/12/28 10:38:33;;;;;;;2.47;1.63;;;7.70;99.90;;;;;;5023868;28;20446;-62
2021/12/28 10:41:06;;;;;;;1.20;1.10;;;7.70;99.90;;;;;;5042136;28;21032;-60
2021/12/28 10:43:34;;;;;;;2.07;1.50;;;7.80;99.90;;;;;;5042177;28;20441;-61
2021/12/28 10:46:07;;;;;;;1.37;1.27;;;7.80;99.90;;;;;;5042362;28;20983;-61
2021/12/28 10:48:39;;;;;;;1.40;1.30;;;7.80;99.90;;;;;;5043063;28;20450;-61
2021/12/28 10:51:10;;;;;;;1.83;1.30;;;7.90;99.90;;;;;;5042063;28;20454;-61
2021/12/28 10:54:00;;;;;;;1.87;1.53;;;7.90;99.90;;;;;;5044416;28;20433;-62
2021/12/28 10:56:29;;;;;;;1.60;1.20;;;8.00;99.90;;;;;;5042304;28;20482;-63
2021/12/28 10:58:55;;;;;;;1.60;1.50;;;8.10;99.90;;;;;;5041636;28;21047;-61
2021/12/28 11:01:27;;;;;;;1.50;1.33;;;8.10;99.90;;;;;;5043765;28;20430;-62
2021/12/28 11:03:53;;;;;;;1.40;1.30;;;8.20;99.90;;;;;;5023788;28;20461;-60
2021/12/28 11:06:23;;;;;;;1.70;1.60;;;8.30;99.90;;;;;;5038176;28;20433;-65
2021/12/28 11:08:52;;;;;;;3.53;2.00;;;8.40;99.90;;;;;;5039100;28;20453;-60
2021/12/28 11:11:20;;;;;;;1.50;1.30;;;8.40;99.90;;;;;;5041591;28;20831;-61
2021/12/28 11:13:47;;;;;;;1.90;1.57;;;8.40;99.90;;;;;;5044598;28;20435;-61
2021/12/28 11:16:15;;;;;;;1.20;1.10;;;8.40;99.90;;;;;;5042027;28;20984;-61
2021/12/28 11:18:44;;;;;;;1.90;1.50;;;8.50;99.90;;;;;;5042747;28;20471;-61
2021/12/28 11:21:20;;;;;;;2.40;1.20;;;8.50;99.90;;;;;;5045102;28;20803;-61
2021/12/28 11:23:49;;;;;;;1.83;1.63;;;8.50;99.90;;;;;;5027415;28;20479;-61
2021/12/28 11:26:25;;;;;;;1.30;1.20;;;8.50;99.90;;;;;;5042587;28;20531;-60
2021/12/28 11:29:02;;;;;;;1.47;1.37;;;8.50;99.90;;;;;;5043757;28;20527;-61
2021/12/28 11:31:40;;;;;;;2.13;1.57;;;8.50;99.90;;;;;;5042910;28;20448;-60
2021/12/28 11:34:23;;;;;;;2.43;1.30;;;8.60;99.90;;;;;;5040464;28;20503;-61
2021/12/28 11:36:55;;;;;;;1.63;1.53;;;8.60;99.90;;;;;;5042833;28;20538;-61
2021/12/28 11:39:28;;;;;;;1.50;1.40;;;8.70;99.90;;;;;;5042186;28;20459;-61
2021/12/28 11:41:55;;;;;;;1.53;1.40;;;8.70;99.90;;;;;;5038614;28;20421;-61
2021/12/28 11:44:23;;;;;;;2.40;2.07;;;8.70;99.90;;;;;;5031387;28;20452;-62
2021/12/28 11:46:49;;;;;;;5.07;3.63;;;8.70;99.90;;;;;;5029253;28;20441;-61
2021/12/28 11:49:15;;;;;;;1.40;1.30;;;8.70;99.90;;;;;;5039523;28;20441;-60
2021/12/28 11:51:44;;;;;;;3.10;1.20;;;8.70;99.90;;;;;;5035007;28;20461;-61
2021/12/28 11:54:12;;;;;;;1.47;1.30;;;8.70;99.90;;;;;;5019515;28;20438;-61
2021/12/28 11:56:42;;;;;;;1.00;1.00;;;8.70;99.90;;;;;;5035475;28;20426;-59
2021/12/28 11:59:19;;;;;;;1.27;1.17;;;8.80;99.90;;;;;;5033529;28;20420;-61
2021/12/28 12:02:00;;;;;;;1.03;0.90;;;8.80;99.90;;;;;;5031708;28;20556;-68
2021/12/28 12:04:42;;;;;;;1.10;1.10;;;8.80;99.90;;;;;;5016162;28;20441;-65
2021/12/28 12:07:14;;;;;;;0.90;0.90;;;8.80;99.90;;;;;;5033398;28;20487;-67
2021/12/28 12:09:52;;;;;;;1.67;0.93;;;8.90;99.90;;;;;;5033275;28;21272;-65
2021/12/28 12:12:26;;;;;;;1.13;1.10;;;8.80;99.90;;;;;;5019160;28;20492;-65
2021/12/28 12:14:52;;;;;;;1.70;1.27;;;8.80;99.90;;;;;;5015237;28;20441;-68
2021/12/28 12:20:00;;;;;;;1.03;1.00;;;8.80;99.90;;;;;;5031868;28;20186;-66
2021/12/28 12:22:32;;;;;;;0.90;0.90;;;8.80;99.90;;;;;;5033966;28;20433;-64
2021/12/28 12:25:17;;;;;;;1.43;1.33;;;8.80;99.90;;;;;;5028039;28;20438;-59
2021/12/28 12:27:45;;;;;;;1.40;1.30;;;8.80;99.90;;;;;;5013949;28;20460;-66
2021/12/28 12:30:17;;;;;;;1.30;1.20;;;8.80;99.90;;;;;;5035225;28;20431;-66
2021/12/28 12:33:01;;;;;;;1.80;1.67;;;8.80;99.90;;;;;;5027119;28;20457;-63
2021/12/28 12:35:35;;;;;;;1.27;1.10;;;8.80;99.90;;;;;;5015633;28;20944;-66
2021/12/28 12:38:26;;;;;;;1.17;1.07;;;8.80;99.90;;;;;;5035364;28;20478;-66
2021/12/28 12:41:01;;;;;;;1.30;1.20;;;8.80;99.90;;;;;;5031808;28;20983;-64
2021/12/28 12:43:36;;;;;;;1.37;1.27;;;8.80;99.90;;;;;;5018449;28;20985;-64
2021/12/28 12:46:20;;;;;;;1.33;1.10;;;8.70;99.90;;;;;;5034162;28;20473;-65
2021/12/28 12:48:46;;;;;;;2.40;1.10;;;8.70;99.90;;;;;;5034543;28;20523;-65
2021/12/28 12:51:21;;;;;;;8.50;1.30;;;8.70;99.90;;;;;;5037640;28;21018;-65
2021/12/28 12:54:00;;;;;;;2.60;1.30;;;8.70;99.90;;;;;;5034603;28;20182;-63
2021/12/28 12:56:37;;;;;;;3.63;2.00;;;8.70;99.90;;;;;;5034268;28;21000;-66
2021/12/28 12:59:20;;;;;;;5.73;2.37;;;8.70;99.90;;;;;;5018073;28;20871;-65
2021/12/28 13:01:48;;;;;;;1.63;1.37;;;8.70;99.90;;;;;;5025399;28;20445;-59
2021/12/28 13:04:26;;;;;;;1.80;1.70;;;8.70;99.90;;;;;;5031680;28;21229;-65